createdAt,value
2018-05-24T00:00:14.373Z,0.40
2018-05-24T00:02:41.615Z,0.20
2018-05-24T00:05:09.201Z,0.20
2018-05-24T00:07:36.653Z,0.20
2018-05-24T00:10:04.321Z,0.47
2018-05-24T00:12:31.274Z,0.30
2018-05-24T00:14:58.941Z,0.40
2018-05-24T00:17:26.199Z,0.27
2018-05-24T00:19:53.345Z,0.30
2018-05-24T00:22:20.718Z,0.23
2018-05-24T00:24:47.769Z,0.40
2018-05-24T00:27:14.823Z,0.30
2018-05-24T00:29:41.673Z,0.40
2018-05-24T00:32:09.439Z,0.40
2018-05-24T00:34:36.188Z,0.40
2018-05-24T00:37:04.469Z,0.20
2018-05-24T00:39:32.138Z,0.50
2018-05-24T00:41:59.292Z,0.20
2018-05-24T00:44:26.245Z,0.30
2018-05-24T00:46:53.402Z,0.30
2018-05-24T00:49:20.453Z,0.27
2018-05-24T00:51:47.406Z,0.40
2018-05-24T00:54:14.457Z,0.33
2018-05-24T00:56:41.822Z,0.40
2018-05-24T00:59:08.848Z,0.20
2018-05-24T01:01:36.440Z,0.40
2018-05-24T01:04:03.494Z,0.40
2018-05-24T01:06:33.955Z,0.20
2018-05-24T01:09:01.580Z,0.30
2018-05-24T01:11:28.746Z,0.30
2018-05-24T01:13:56.404Z,0.20
2018-05-24T01:16:23.265Z,0.30
2018-05-24T01:18:50.114Z,0.40
2018-05-24T01:21:18.087Z,0.30
2018-05-24T01:23:44.835Z,0.30
2018-05-24T01:26:11.990Z,0.30
2018-05-24T01:28:38.737Z,0.30
2018-05-24T01:31:06.710Z,0.30
2018-05-24T01:33:34.474Z,0.37
2018-05-24T01:36:01.231Z,0.33
2018-05-24T01:38:28.180Z,0.30
2018-05-24T01:40:55.539Z,0.20
2018-05-24T01:43:22.492Z,0.30
2018-05-24T01:45:49.578Z,0.50
2018-05-24T01:48:17.621Z,0.30
2018-05-24T01:50:45.292Z,0.30
2018-05-24T01:53:12.546Z,0.40
2018-05-24T01:55:39.809Z,0.30
2018-05-24T01:58:06.761Z,0.20
2018-05-24T02:00:33.914Z,0.43
2018-05-24T02:03:00.867Z,0.40
2018-05-24T02:05:28.333Z,0.53
2018-05-24T02:07:55.283Z,0.40
2018-05-24T02:10:23.160Z,0.40
2018-05-24T02:12:50.298Z,0.40
2018-05-24T02:15:17.566Z,0.30
2018-05-24T02:17:44.928Z,0.40
2018-05-24T02:20:12.704Z,0.30
2018-05-24T02:22:39.706Z,0.47
2018-05-24T02:25:06.848Z,0.37
2018-05-24T02:27:35.703Z,0.43
2018-05-24T02:30:03.071Z,0.47
2018-05-24T02:32:31.157Z,0.60
2018-05-24T02:34:58.079Z,0.37
2018-05-24T02:37:25.043Z,0.40
2018-05-24T02:39:52.720Z,0.50
2018-05-24T02:42:20.785Z,0.37
2018-05-24T02:44:48.149Z,0.60
2018-05-24T02:47:14.997Z,0.40
2018-05-24T02:49:41.948Z,0.40
2018-05-24T02:52:09.616Z,0.30
2018-05-24T02:54:36.362Z,0.40
2018-05-24T02:57:03.620Z,0.37
2018-05-24T02:59:31.392Z,0.30
2018-05-24T03:01:58.342Z,0.40
2018-05-24T03:04:25.599Z,0.40
2018-05-24T03:06:52.553Z,0.30
2018-05-24T03:09:19.810Z,0.30
2018-05-24T03:11:46.959Z,0.40
2018-05-24T03:14:13.974Z,0.50
2018-05-24T03:16:41.176Z,0.30
2018-05-24T03:19:08.225Z,0.40
2018-05-24T03:21:35.489Z,0.30
2018-05-24T03:24:02.439Z,0.40
2018-05-24T03:26:29.584Z,0.50
2018-05-24T03:28:56.749Z,0.50
2018-05-24T03:31:25.494Z,0.50
2018-05-24T03:33:53.623Z,0.40
2018-05-24T03:36:20.573Z,0.30
2018-05-24T03:38:47.525Z,0.30
2018-05-24T03:41:14.674Z,0.47
2018-05-24T03:43:42.758Z,0.40
2018-05-24T03:46:09.710Z,0.40
2018-05-24T03:48:37.070Z,0.40
2018-05-24T03:51:03.816Z,0.40
2018-05-24T03:53:30.768Z,0.40
2018-05-24T03:55:57.614Z,0.50
2018-05-24T03:58:24.770Z,0.30
2018-05-24T04:01:04.105Z,0.30
2018-05-24T04:03:43.642Z,0.30
2018-05-24T04:06:10.801Z,0.50
2018-05-24T04:08:38.570Z,0.50
2018-05-24T04:11:05.419Z,0.60
2018-05-24T04:13:33.088Z,0.47
2018-05-24T04:15:59.935Z,0.50
2018-05-24T04:18:27.408Z,0.30
2018-05-24T04:20:55.986Z,0.50
2018-05-24T04:23:23.213Z,0.50
2018-05-24T04:25:50.502Z,0.50
2018-05-24T04:28:17.660Z,0.80
2018-05-24T04:30:45.019Z,0.53
2018-05-24T04:33:11.868Z,0.47
2018-05-24T04:35:38.719Z,0.40
2018-05-24T04:38:05.669Z,0.40
2018-05-24T04:40:36.115Z,0.50
2018-05-24T04:43:04.075Z,0.50
2018-05-24T04:45:32.136Z,0.50
2018-05-24T04:48:00.535Z,0.57
2018-05-24T04:50:27.797Z,0.47
2018-05-24T04:52:54.745Z,0.40
2018-05-24T04:55:22.821Z,0.50
2018-05-24T04:57:49.876Z,0.70
2018-05-24T05:00:17.237Z,0.40
2018-05-24T05:02:44.391Z,0.50
2018-05-24T05:05:11.347Z,0.55
2018-05-24T05:07:38.298Z,0.50
2018-05-24T05:10:06.069Z,0.50
2018-05-24T05:12:32.915Z,0.60
2018-05-24T05:15:00.406Z,0.50
2018-05-24T05:17:29.577Z,0.73
2018-05-24T05:19:56.841Z,0.60
2018-05-24T05:22:24.917Z,0.60
2018-05-24T05:24:52.276Z,0.62
2018-05-24T05:27:19.842Z,0.90
2018-05-24T05:29:47.201Z,0.90
2018-05-24T05:32:14.842Z,0.70
2018-05-24T05:34:42.028Z,0.82
2018-05-24T05:37:09.795Z,0.70
2018-05-24T05:39:36.750Z,0.90
2018-05-24T05:42:04.414Z,0.82
2018-05-24T05:44:31.675Z,0.60
2018-05-24T05:46:59.344Z,0.60
2018-05-24T05:49:26.292Z,0.80
2018-05-24T05:51:53.655Z,0.73
2018-05-24T05:54:20.703Z,0.95
2018-05-24T05:56:47.967Z,0.98
2018-05-24T05:59:14.712Z,0.80
2018-05-24T06:01:42.028Z,0.88
2018-05-24T06:04:09.230Z,0.85
2018-05-24T06:06:36.998Z,0.95
2018-05-24T06:09:04.052Z,0.90
2018-05-24T06:11:31.309Z,0.90
2018-05-24T06:13:59.121Z,0.80
2018-05-24T06:16:26.545Z,1.05
2018-05-24T06:18:53.489Z,0.95
2018-05-24T06:21:20.342Z,0.80
2018-05-24T06:23:47.493Z,0.95
2018-05-24T06:26:14.655Z,1.10
2018-05-24T06:28:42.837Z,1.30
2018-05-24T06:31:09.789Z,0.90
2018-05-24T06:33:36.635Z,0.88
2018-05-24T06:36:03.588Z,1.02
2018-05-24T06:38:31.357Z,1.02
2018-05-24T06:40:58.719Z,1.20
2018-05-24T06:43:26.080Z,1.30
2018-05-24T06:45:53.336Z,1.17
2018-05-24T06:48:20.286Z,1.02
2018-05-24T06:50:47.138Z,1.05
2018-05-24T06:53:14.397Z,1.00
2018-05-24T06:55:41.244Z,1.33
2018-05-24T06:58:08.503Z,1.12
2018-05-24T07:00:35.573Z,1.40
2018-05-24T07:03:02.712Z,1.20
2018-05-24T07:05:29.663Z,1.10
2018-05-24T07:07:57.023Z,1.27
2018-05-24T07:10:24.284Z,1.15
2018-05-24T07:12:51.439Z,1.00
2018-05-24T07:15:18.493Z,1.25
2018-05-24T07:17:45.445Z,0.95
2018-05-24T07:20:12.809Z,1.02
2018-05-24T07:22:40.064Z,1.17
2018-05-24T07:25:07.322Z,1.20
2018-05-24T07:27:34.483Z,1.00
2018-05-24T07:30:01.725Z,1.00
2018-05-24T07:32:29.709Z,1.05
2018-05-24T07:34:56.557Z,1.08
2018-05-24T07:37:23.716Z,0.98
2018-05-24T07:39:50.871Z,1.10
2018-05-24T07:42:18.135Z,1.10
2018-05-24T07:44:45.796Z,0.98
2018-05-24T07:47:12.749Z,1.02
2018-05-24T07:49:39.587Z,1.00
2018-05-24T07:52:06.856Z,0.95
2018-05-24T07:54:34.216Z,1.00
2018-05-24T07:57:01.170Z,0.88
2018-05-24T07:59:28.426Z,1.08
2018-05-24T08:01:55.379Z,1.02
2018-05-24T08:04:22.328Z,0.88
2018-05-24T08:06:49.371Z,0.90
2018-05-24T08:09:16.848Z,0.98
2018-05-24T08:11:44.002Z,1.23
2018-05-24T08:14:11.258Z,1.30
2018-05-24T08:16:38.134Z,1.10
2018-05-24T08:19:05.570Z,0.98
2018-05-24T08:21:32.420Z,0.90
2018-05-24T08:23:59.372Z,0.60
2018-05-24T08:26:26.207Z,0.88
2018-05-24T08:28:53.377Z,1.00
2018-05-24T08:31:21.557Z,0.70
2018-05-24T08:33:48.815Z,0.85
2018-05-24T08:36:15.769Z,0.80
2018-05-24T08:38:43.126Z,0.73
2018-05-24T08:41:10.385Z,0.80
2018-05-24T08:43:38.361Z,0.70
2018-05-24T08:46:05.315Z,0.60
2018-05-24T08:48:33.442Z,0.70
2018-05-24T08:51:00.342Z,0.50
2018-05-24T08:53:27.795Z,0.70
2018-05-24T08:55:54.654Z,0.62
2018-05-24T08:58:21.703Z,0.90
2018-05-24T09:00:48.860Z,0.60
2018-05-24T09:03:15.813Z,0.88
2018-05-24T09:05:42.661Z,0.50
2018-05-24T09:08:09.614Z,0.57
2018-05-24T09:10:36.563Z,0.70
2018-05-24T09:13:03.514Z,0.80
2018-05-24T09:15:30.661Z,0.50
2018-05-24T09:17:57.826Z,0.70
2018-05-24T09:20:24.778Z,0.60
2018-05-24T09:22:51.731Z,0.70
2018-05-24T09:25:18.980Z,0.73
2018-05-24T09:27:46.352Z,0.50
2018-05-24T09:30:13.299Z,0.68
2018-05-24T09:32:40.762Z,0.52
2018-05-24T09:35:07.921Z,0.60
2018-05-24T09:37:34.770Z,0.50
2018-05-24T09:40:01.721Z,0.70
2018-05-24T09:42:29.798Z,0.60
2018-05-24T09:44:56.749Z,0.60
2018-05-24T09:47:24.519Z,0.70
2018-05-24T09:49:51.776Z,0.70
2018-05-24T09:52:19.129Z,0.68
2018-05-24T09:54:45.986Z,0.47
2018-05-24T09:57:12.937Z,0.70
2018-05-24T09:59:40.206Z,0.55
2018-05-24T10:02:07.454Z,0.65
2018-05-24T10:04:34.654Z,0.60
2018-05-24T10:07:01.970Z,0.50
2018-05-24T10:09:28.818Z,0.60
2018-05-24T10:11:55.771Z,0.32
2018-05-24T10:14:22.720Z,0.57
2018-05-24T10:16:49.980Z,0.62
2018-05-24T10:19:17.032Z,0.50
2018-05-24T10:21:43.983Z,0.70
2018-05-24T10:24:11.057Z,0.50
2018-05-24T10:26:38.602Z,0.57
2018-05-24T10:29:05.557Z,0.50
2018-05-24T10:31:32.917Z,0.55
2018-05-24T10:33:59.870Z,0.62
2018-05-24T10:36:26.818Z,0.52
2018-05-24T10:38:53.872Z,0.60
2018-05-24T10:41:21.137Z,0.80
2018-05-24T10:43:47.980Z,0.70
2018-05-24T10:46:15.137Z,0.52
2018-05-24T10:48:42.289Z,0.70
2018-05-24T10:51:09.552Z,0.40
2018-05-24T10:53:36.899Z,0.52
2018-05-24T10:56:04.170Z,0.60
2018-05-24T10:58:31.323Z,0.57
2018-05-24T11:00:58.688Z,0.70
2018-05-24T11:03:25.643Z,0.52
2018-05-24T11:05:52.792Z,0.70
2018-05-24T11:08:20.049Z,0.40
2018-05-24T11:10:47.001Z,0.62
2018-05-24T11:13:14.055Z,0.52
2018-05-24T11:15:41.418Z,0.60
2018-05-24T11:18:08.776Z,0.60
2018-05-24T11:20:36.449Z,0.52
2018-05-24T11:23:03.600Z,0.70
2018-05-24T11:25:30.861Z,0.50
2018-05-24T11:27:57.799Z,0.65
2018-05-24T11:30:25.580Z,0.73
2018-05-24T11:32:52.948Z,0.68
2018-05-24T11:35:19.894Z,0.60
2018-05-24T11:37:46.640Z,0.80
2018-05-24T11:40:13.795Z,0.70
2018-05-24T11:42:40.537Z,0.73
2018-05-24T11:45:07.699Z,0.95
2018-05-24T11:47:35.777Z,0.60
2018-05-24T11:50:02.828Z,0.68
2018-05-24T11:52:29.985Z,0.65
2018-05-24T11:54:57.949Z,0.80
2018-05-24T11:57:24.809Z,0.60
2018-05-24T11:59:52.372Z,0.80
2018-05-24T12:02:19.631Z,0.80
2018-05-24T12:04:46.684Z,0.70
2018-05-24T12:07:13.738Z,0.80
2018-05-24T12:09:40.690Z,0.90
2018-05-24T12:12:07.841Z,0.90
2018-05-24T12:14:35.414Z,0.80
2018-05-24T12:17:02.571Z,0.73
2018-05-24T12:19:29.518Z,0.90
2018-05-24T12:21:56.265Z,0.60
2018-05-24T12:24:23.010Z,0.70
2018-05-24T12:26:50.149Z,0.98
2018-05-24T12:29:17.322Z,0.85
2018-05-24T12:31:44.283Z,1.10
2018-05-24T12:34:11.536Z,0.70
2018-05-24T12:36:38.382Z,0.82
2018-05-24T12:39:05.642Z,0.88
2018-05-24T12:41:32.920Z,0.80
2018-05-24T12:44:04.892Z,0.90
2018-05-24T12:46:33.044Z,0.70
2018-05-24T12:49:00.047Z,0.90
2018-05-24T12:51:26.950Z,0.62
2018-05-24T12:53:54.205Z,0.65
2018-05-24T12:56:21.670Z,0.88
2018-05-24T12:58:49.848Z,1.00
2018-05-24T13:01:17.824Z,0.80
2018-05-24T13:03:45.796Z,1.10
2018-05-24T13:06:13.058Z,0.90
2018-05-24T13:08:40.646Z,1.00
2018-05-24T13:11:08.293Z,0.88
2018-05-24T13:13:36.163Z,0.75
2018-05-24T13:16:03.931Z,0.90
2018-05-24T13:18:31.293Z,0.80
2018-05-24T13:20:58.448Z,1.10
2018-05-24T13:23:26.321Z,1.17
2018-05-24T13:25:54.191Z,0.98
2018-05-24T13:28:21.146Z,1.05
2018-05-24T13:30:48.197Z,1.00
2018-05-24T13:33:15.962Z,1.30
2018-05-24T13:35:43.224Z,0.70
2018-05-24T13:38:10.585Z,1.12
2018-05-24T13:40:38.355Z,1.02
2018-05-24T13:43:05.192Z,1.05
2018-05-24T13:45:32.362Z,1.10
2018-05-24T13:47:59.414Z,0.90
2018-05-24T13:52:59.050Z,0.85
2018-05-24T13:55:26.715Z,0.80
2018-05-24T13:57:54.476Z,1.00
2018-05-24T14:00:21.745Z,0.80
2018-05-24T14:02:49.004Z,1.08
2018-05-24T14:05:16.159Z,0.85
2018-05-24T14:07:43.008Z,0.82
2018-05-24T14:10:10.168Z,0.77
2018-05-24T14:12:37.735Z,0.82
2018-05-24T14:15:05.282Z,0.88
2018-05-24T14:17:32.710Z,0.80
2018-05-24T14:19:59.604Z,0.90
2018-05-24T14:22:27.374Z,1.00
2018-05-24T14:24:54.737Z,0.80
2018-05-24T14:27:21.892Z,0.93
2018-05-24T14:29:49.042Z,1.00
2018-05-24T14:32:15.896Z,1.10
2018-05-24T14:34:43.149Z,0.90
2018-05-24T14:37:10.209Z,1.12
2018-05-24T14:39:37.674Z,0.97
2018-05-24T14:42:05.039Z,1.20
2018-05-24T14:44:32.291Z,0.98
2018-05-24T14:46:59.959Z,1.25
2018-05-24T14:49:27.831Z,1.00
2018-05-24T14:51:54.784Z,1.17
2018-05-24T14:54:21.941Z,0.80
2018-05-24T14:56:50.120Z,0.70
2018-05-24T14:59:18.604Z,0.80
2018-05-24T15:01:45.858Z,0.90
2018-05-24T15:04:12.710Z,0.70
2018-05-24T15:06:40.075Z,0.70
2018-05-24T15:09:07.228Z,0.60
2018-05-24T15:11:34.178Z,0.50
2018-05-24T15:14:01.849Z,0.62
2018-05-24T15:16:29.112Z,0.62
2018-05-24T15:18:56.559Z,0.80
2018-05-24T15:21:23.522Z,0.63
2018-05-24T15:23:52.283Z,0.60
2018-05-24T15:26:19.264Z,0.60
2018-05-24T15:31:18.491Z,0.60
2018-05-24T15:33:45.951Z,0.73
2018-05-24T15:36:13.721Z,0.70
2018-05-24T15:38:40.969Z,0.77
2018-05-24T15:41:08.136Z,0.43
2018-05-24T15:43:35.939Z,0.65
2018-05-24T15:46:03.061Z,0.43
2018-05-24T15:48:30.732Z,0.47
2018-05-24T15:50:58.092Z,0.98
2018-05-24T15:53:25.145Z,0.60
2018-05-24T15:55:52.401Z,0.90
2018-05-24T15:58:20.192Z,0.53
2018-05-24T16:00:47.840Z,0.63
2018-05-24T16:03:15.097Z,0.57
2018-05-24T16:05:57.811Z,0.73
2018-05-24T16:08:24.966Z,0.83
2018-05-24T16:10:52.020Z,0.60
2018-05-24T16:13:19.072Z,0.50
2018-05-24T16:15:46.946Z,0.50
2018-05-24T16:18:14.498Z,0.70
2018-05-24T16:20:42.175Z,0.50
2018-05-24T16:23:09.028Z,0.60
2018-05-24T16:25:36.387Z,0.60
2018-05-24T16:28:05.179Z,0.70
2018-05-24T16:30:32.953Z,0.60
2018-05-24T16:32:59.909Z,0.57
2018-05-24T16:35:27.148Z,0.77
2018-05-24T16:37:56.307Z,0.67
2018-05-24T16:40:24.225Z,0.60
2018-05-24T16:42:51.186Z,0.60
2018-05-24T16:45:18.843Z,0.77
2018-05-24T16:47:46.625Z,0.50
2018-05-24T16:50:14.139Z,0.63
2018-05-24T16:52:41.553Z,0.60
2018-05-24T16:55:08.810Z,0.53
2018-05-24T16:57:35.585Z,0.67
2018-05-24T17:00:04.046Z,0.70
2018-05-24T17:02:32.097Z,0.50
2018-05-24T17:05:00.651Z,0.50
2018-05-24T17:07:27.452Z,0.70
2018-05-24T17:09:54.304Z,0.70
2018-05-24T17:12:21.563Z,0.50
2018-05-24T17:14:48.924Z,0.60
2018-05-24T17:17:17.616Z,0.70
2018-05-24T17:19:44.565Z,0.53
2018-05-24T17:22:12.641Z,0.50
2018-05-24T17:24:42.355Z,0.60
2018-05-24T17:29:41.182Z,0.70
2018-05-24T17:32:08.433Z,0.70
2018-05-24T17:34:36.018Z,0.70
2018-05-24T17:37:04.379Z,0.60
2018-05-24T17:39:31.221Z,0.70
2018-05-24T17:41:59.100Z,0.50
2018-05-24T17:44:26.870Z,0.50
2018-05-24T17:46:53.869Z,0.60
2018-05-24T17:49:20.669Z,0.50
2018-05-24T17:51:47.722Z,0.70
2018-05-24T17:54:14.501Z,0.60
2018-05-24T17:56:41.421Z,0.40
2018-05-24T17:59:10.239Z,0.60
2018-05-24T18:01:38.598Z,0.53
2018-05-24T18:04:06.171Z,0.50
2018-05-24T18:06:33.676Z,0.60
2018-05-24T18:09:01.406Z,0.60
2018-05-24T18:11:28.138Z,0.40
2018-05-24T18:13:55.994Z,0.43
2018-05-24T18:16:23.467Z,0.50
2018-05-24T18:18:50.244Z,0.47
2018-05-24T18:21:17.842Z,0.50
2018-05-24T18:23:44.903Z,0.70
2018-05-24T18:26:12.515Z,0.60
2018-05-24T18:28:39.606Z,0.43
2018-05-24T18:31:06.664Z,0.60
2018-05-24T18:33:34.023Z,0.43
2018-05-24T18:36:01.201Z,0.43
2018-05-24T18:38:28.294Z,0.60
2018-05-24T18:40:56.676Z,0.50
2018-05-24T18:43:25.159Z,0.50
2018-05-24T18:45:52.732Z,0.50
2018-05-24T18:48:20.317Z,0.80
2018-05-24T18:50:48.147Z,0.70
2018-05-24T18:53:14.892Z,0.50
2018-05-24T18:55:43.473Z,0.40
2018-05-24T18:58:10.968Z,0.40
2018-05-24T19:00:37.710Z,0.63
2018-05-24T19:03:05.263Z,0.60
2018-05-24T19:05:32.318Z,0.63
2018-05-24T19:07:59.319Z,0.50
2018-05-24T19:10:26.097Z,0.50
2018-05-24T19:12:52.963Z,0.60
2018-05-24T19:15:20.649Z,0.63
2018-05-24T19:17:47.600Z,0.77
2018-05-24T19:20:14.958Z,0.60
2018-05-24T19:22:42.012Z,0.60
2018-05-24T19:25:09.167Z,0.57
2018-05-24T19:27:35.980Z,0.70
2018-05-24T19:30:03.993Z,0.50
2018-05-24T19:32:31.354Z,0.40
2018-05-24T19:34:59.224Z,0.70
2018-05-24T19:37:31.786Z,0.70
2018-05-24T19:40:02.014Z,0.70
2018-05-24T19:42:32.498Z,0.70
2018-05-24T19:45:05.403Z,0.70
2018-05-24T19:47:33.803Z,0.57
2018-05-24T19:50:03.635Z,0.50
2018-05-24T19:52:32.418Z,0.60
2018-05-24T19:54:59.907Z,0.50
2018-05-24T19:57:27.286Z,0.40
2018-05-24T19:59:55.954Z,0.60
2018-05-24T20:02:23.039Z,0.50
2018-05-24T20:04:50.114Z,0.50
2018-05-24T20:07:17.317Z,0.70
2018-05-24T20:09:44.583Z,0.60
2018-05-24T20:12:11.351Z,0.70
2018-05-24T20:14:38.181Z,0.80
2018-05-24T20:17:05.029Z,0.40
2018-05-24T20:19:32.082Z,0.60
2018-05-24T20:21:59.647Z,0.70
2018-05-24T20:24:26.843Z,0.80
2018-05-24T20:26:53.987Z,0.70
2018-05-24T20:29:21.000Z,0.50
2018-05-24T20:31:48.196Z,0.70
2018-05-24T20:34:18.431Z,0.53
2018-05-24T20:36:46.541Z,0.63
2018-05-24T20:39:13.760Z,0.60
2018-05-24T20:41:40.953Z,0.60
2018-05-24T20:44:08.553Z,0.60
2018-05-24T20:46:36.440Z,0.37
2018-05-24T20:49:04.909Z,0.40
2018-05-24T20:51:33.465Z,0.80
2018-05-24T20:54:01.242Z,0.43
2018-05-24T20:56:29.270Z,0.83
2018-05-24T20:58:56.047Z,0.50
2018-05-24T21:01:24.476Z,0.57
2018-05-24T21:03:51.941Z,0.67
2018-05-24T21:06:19.617Z,0.67
2018-05-24T21:08:46.971Z,0.53
2018-05-24T21:11:14.039Z,0.70
2018-05-24T21:13:42.668Z,0.73
2018-05-24T21:16:09.995Z,0.80
2018-05-24T21:18:36.813Z,0.60
2018-05-24T21:21:03.812Z,0.60
2018-05-24T21:23:31.058Z,0.40
2018-05-24T21:25:58.125Z,0.63
2018-05-24T21:28:25.822Z,0.70
2018-05-24T21:30:53.075Z,0.70
2018-05-24T21:33:21.194Z,0.40
2018-05-24T21:35:48.246Z,0.60
2018-05-24T21:38:16.442Z,0.60
2018-05-24T21:40:43.439Z,0.50
2018-05-24T21:43:10.905Z,0.80
2018-05-24T21:45:38.432Z,0.57
2018-05-24T21:48:05.580Z,0.70
2018-05-24T21:50:32.523Z,0.63
2018-05-24T21:53:00.000Z,0.50
2018-05-24T21:55:27.531Z,0.63
2018-05-24T21:57:54.291Z,0.50
2018-05-24T22:00:21.300Z,0.60
2018-05-24T22:02:48.879Z,0.50
2018-05-24T22:05:15.953Z,0.50
2018-05-24T22:07:42.807Z,0.70
2018-05-24T22:10:09.969Z,0.47
2018-05-24T22:12:37.016Z,0.60
2018-05-24T22:15:04.276Z,0.70
2018-05-24T22:17:31.743Z,0.70
2018-05-24T22:19:58.754Z,0.70
2018-05-24T22:22:26.612Z,0.60
2018-05-24T22:24:53.859Z,0.60
2018-05-24T22:27:23.255Z,0.60
2018-05-24T22:29:52.124Z,0.63
2018-05-24T22:32:20.818Z,0.70
2018-05-24T22:34:48.186Z,0.70
2018-05-24T22:37:15.523Z,0.67
2018-05-24T22:39:42.488Z,0.80
2018-05-24T22:42:09.443Z,0.67
2018-05-24T22:44:36.805Z,0.70
2018-05-24T22:47:04.106Z,0.63
2018-05-24T22:49:31.625Z,0.53
2018-05-24T22:52:03.932Z,0.77
2018-05-24T22:54:30.738Z,0.70
2018-05-24T22:56:57.499Z,0.60
2018-05-24T22:59:25.211Z,0.70
2018-05-24T23:01:54.902Z,0.70
2018-05-24T23:04:22.134Z,0.50
2018-05-24T23:06:49.393Z,0.60
2018-05-24T23:09:16.460Z,0.70
2018-05-24T23:11:43.808Z,1.00
2018-05-24T23:16:43.463Z,0.73
2018-05-24T23:19:10.263Z,0.60
2018-05-24T23:21:37.827Z,0.50
2018-05-24T23:24:05.336Z,0.60
2018-05-24T23:26:32.131Z,0.80
2018-05-24T23:28:59.099Z,0.60
2018-05-24T23:31:26.583Z,0.70
2018-05-24T23:33:54.604Z,1.10
2018-05-24T23:36:21.425Z,0.60
2018-05-24T23:38:48.685Z,1.00
2018-05-24T23:41:15.557Z,0.60
2018-05-24T23:43:44.057Z,0.73
2018-05-24T23:46:10.986Z,0.70
2018-05-24T23:48:37.812Z,0.60
2018-05-24T23:51:05.901Z,0.60
2018-05-24T23:53:32.948Z,0.70
2018-05-24T23:55:59.691Z,0.70
2018-05-24T23:58:26.465Z,0.80
